createdAt,value
2019-03-15T00:00:36.000Z,99239
2019-03-15T00:01:36.000Z,99233
2019-03-15T00:03:36.000Z,99243
2019-03-15T00:05:36.000Z,99256
2019-03-15T00:07:36.000Z,99250
2019-03-15T00:09:21.000Z,99243
2019-03-15T00:10:36.000Z,99250
2019-03-15T00:11:36.000Z,99250
2019-03-15T00:13:36.000Z,99252
2019-03-15T00:15:36.000Z,99251
2019-03-15T00:17:20.000Z,99248
2019-03-15T00:18:36.000Z,99253
2019-03-15T00:20:36.000Z,99257
2019-03-15T00:21:36.000Z,99246
2019-03-15T00:23:36.000Z,99254
2019-03-15T00:24:36.000Z,99254
2019-03-15T00:26:36.000Z,99259
2019-03-15T00:28:36.000Z,99257
2019-03-15T00:29:36.000Z,99260
2019-03-15T00:31:36.000Z,99265
2019-03-15T00:33:36.000Z,99263
2019-03-15T00:35:20.000Z,99266
2019-03-15T00:36:36.000Z,99264
2019-03-15T00:37:36.000Z,99264
2019-03-15T00:38:36.000Z,99267
2019-03-15T00:40:36.000Z,99267
2019-03-15T00:42:36.000Z,99263
2019-03-15T00:44:36.000Z,99263
2019-03-15T00:46:36.000Z,99269
2019-03-15T00:47:36.000Z,99274
2019-03-15T00:49:21.000Z,99270
2019-03-15T00:51:36.000Z,99279
2019-03-15T00:52:36.000Z,99270
2019-03-15T00:54:36.000Z,99265
2019-03-15T00:55:36.000Z,99275
2019-03-15T00:56:36.000Z,99268
2019-03-15T00:58:36.000Z,99268
2019-03-15T00:59:36.000Z,99273
2019-03-15T01:01:20.000Z,99264
2019-03-15T01:02:35.000Z,99265
2019-03-15T01:04:05.000Z,99275
2019-03-15T01:05:35.000Z,99272
2019-03-15T01:06:35.000Z,99270
2019-03-15T01:08:35.000Z,99270
2019-03-15T01:09:35.000Z,99269
2019-03-15T01:11:35.000Z,99269
2019-03-15T01:13:35.000Z,99273
2019-03-15T01:15:35.000Z,99257
2019-03-15T01:17:20.000Z,99264
2019-03-15T01:18:35.000Z,99260
2019-03-15T01:19:35.000Z,99256
2019-03-15T01:21:35.000Z,99255
2019-03-15T01:22:35.000Z,99248
2019-03-15T01:24:35.000Z,99249
2019-03-15T01:26:35.000Z,99250
2019-03-15T01:28:35.000Z,99251
2019-03-15T01:30:35.000Z,99256
2019-03-15T01:32:35.000Z,99255
2019-03-15T01:33:35.000Z,99257
2019-03-15T01:35:35.000Z,99256
2019-03-15T01:36:35.000Z,99260
2019-03-15T01:38:35.000Z,99255
2019-03-15T01:40:35.000Z,99259
2019-03-15T01:41:35.000Z,99265
2019-03-15T01:43:20.000Z,99266
2019-03-15T01:44:35.000Z,99263
2019-03-15T01:46:35.000Z,99267
2019-03-15T01:48:35.000Z,99267
2019-03-15T01:50:35.000Z,99267
2019-03-15T01:51:35.000Z,99265
2019-03-15T01:53:35.000Z,99260
2019-03-15T01:55:20.000Z,99260
2019-03-15T01:56:35.000Z,99261
2019-03-15T01:58:35.000Z,99253
2019-03-15T02:00:35.000Z,99260
2019-03-15T02:02:20.000Z,99245
2019-03-15T02:04:35.000Z,99252
2019-03-15T02:06:20.000Z,99260
2019-03-15T02:07:35.000Z,99256
2019-03-15T02:08:35.000Z,99256
2019-03-15T02:10:20.000Z,99256
2019-03-15T02:11:35.000Z,99259
2019-03-15T02:13:20.000Z,99255
2019-03-15T02:14:35.000Z,99248
2019-03-15T02:16:35.000Z,99250
2019-03-15T02:18:35.000Z,99250
2019-03-15T02:19:35.000Z,99250
2019-03-15T02:21:35.000Z,99251
2019-03-15T02:23:35.000Z,99250
2019-03-15T02:25:35.000Z,99253
2019-03-15T02:26:35.000Z,99255
2019-03-15T02:28:35.000Z,99254
2019-03-15T02:30:20.000Z,99251
2019-03-15T02:31:35.000Z,99246
2019-03-15T02:32:35.000Z,99252
2019-03-15T02:34:35.000Z,99242
2019-03-15T02:35:35.000Z,99240
2019-03-15T02:37:05.000Z,99231
2019-03-15T02:38:35.000Z,99245
2019-03-15T02:40:35.000Z,99249
2019-03-15T02:42:35.000Z,99250
2019-03-15T02:44:20.000Z,99248
2019-03-15T02:46:35.000Z,99241
2019-03-15T02:47:35.000Z,99246
2019-03-15T02:49:35.000Z,99249
2019-03-15T02:51:20.000Z,99257
2019-03-15T02:53:35.000Z,99257
2019-03-15T02:55:20.000Z,99253
2019-03-15T02:57:35.000Z,99255
2019-03-15T02:58:35.000Z,99254
2019-03-15T03:00:20.000Z,99259
2019-03-15T03:02:35.000Z,99256
2019-03-15T03:03:35.000Z,99251
2019-03-15T03:04:35.000Z,99251
2019-03-15T03:06:35.000Z,99256
2019-03-15T03:08:35.000Z,99258
2019-03-15T03:10:35.000Z,99258
2019-03-15T03:12:35.000Z,99262
2019-03-15T03:14:35.000Z,99258
2019-03-15T03:15:35.000Z,99258
2019-03-15T03:17:35.000Z,99258
2019-03-15T03:19:35.000Z,99255
2019-03-15T03:20:35.000Z,99248
2019-03-15T03:22:35.000Z,99246
2019-03-15T03:24:20.000Z,99245
2019-03-15T03:25:35.000Z,99248
2019-03-15T03:27:05.000Z,99253
2019-03-15T03:28:35.000Z,99249
2019-03-15T03:29:35.000Z,99246
2019-03-15T03:31:35.000Z,99248
2019-03-15T03:33:35.000Z,99246
2019-03-15T03:35:05.000Z,99247
2019-03-15T03:36:35.000Z,99243
2019-03-15T03:38:35.000Z,99252
2019-03-15T03:40:20.000Z,99242
2019-03-15T03:41:20.000Z,99243
2019-03-15T03:43:20.000Z,99242
2019-03-15T03:44:35.000Z,99233
2019-03-15T03:46:35.000Z,99230
2019-03-15T03:47:35.000Z,99232
2019-03-15T03:49:20.000Z,99232
2019-03-15T03:51:35.000Z,99233
2019-03-15T03:53:35.000Z,99231
2019-03-15T03:55:35.000Z,99236
2019-03-15T03:57:20.000Z,99230
2019-03-15T03:58:20.000Z,99228
2019-03-15T03:59:35.000Z,99225
2019-03-15T04:01:05.000Z,99224
2019-03-15T04:02:20.000Z,99219
2019-03-15T04:03:35.000Z,99223
2019-03-15T04:05:35.000Z,99221
2019-03-15T04:07:35.000Z,99222
2019-03-15T04:08:35.000Z,99220
2019-03-15T04:10:20.000Z,99208
2019-03-15T04:11:35.000Z,99205
2019-03-15T04:13:36.000Z,99204
2019-03-15T04:15:20.000Z,99196
2019-03-15T04:16:36.000Z,99200
2019-03-15T04:17:36.000Z,99204
2019-03-15T04:19:36.000Z,99202
2019-03-15T04:20:36.000Z,99200
2019-03-15T04:22:36.000Z,99198
2019-03-15T04:23:36.000Z,99198
2019-03-15T04:25:22.000Z,99204
2019-03-15T04:26:36.000Z,99202
2019-03-15T04:27:36.000Z,99198
2019-03-15T04:29:36.000Z,99204
2019-03-15T04:31:20.000Z,99202
2019-03-15T04:32:36.000Z,99215
2019-03-15T04:34:20.000Z,99219
2019-03-15T04:51:12.000Z,99207
2019-03-15T04:53:12.000Z,99203
2019-03-15T04:54:56.000Z,99207
2019-03-15T04:56:12.000Z,99207
2019-03-15T04:58:12.000Z,99204
2019-03-15T05:00:12.000Z,99212
2019-03-15T05:01:12.000Z,99209
2019-03-15T05:02:12.000Z,99200
2019-03-15T05:03:12.000Z,99202
2019-03-15T05:04:57.000Z,99197
2019-03-15T05:07:12.000Z,99207
2019-03-15T05:09:12.000Z,99208
2019-03-15T05:11:12.000Z,99206
2019-03-15T05:13:12.000Z,99199
2019-03-15T05:14:56.000Z,99200
2019-03-15T05:15:56.000Z,99198
2019-03-15T05:17:12.000Z,99196
2019-03-15T05:18:12.000Z,99195
2019-03-15T05:20:12.000Z,99188
2019-03-15T05:22:12.000Z,99178
2019-03-15T05:23:12.000Z,99178
2019-03-15T05:24:56.000Z,99170
2019-03-15T05:26:12.000Z,99173
2019-03-15T05:28:12.000Z,99167
2019-03-15T05:30:12.000Z,99157
2019-03-15T05:31:12.000Z,99157
2019-03-15T05:33:12.000Z,99157
2019-03-15T05:35:12.000Z,99145
2019-03-15T05:37:12.000Z,99152
2019-03-15T05:38:56.000Z,99155
2019-03-15T05:40:12.000Z,99153
2019-03-15T05:42:12.000Z,99147
2019-03-15T05:43:12.000Z,99153
2019-03-15T05:45:12.000Z,99144
2019-03-15T05:46:12.000Z,99152
2019-03-15T05:47:57.000Z,99146
2019-03-15T05:50:12.000Z,99143
2019-03-15T05:51:12.000Z,99138
2019-03-15T05:52:12.000Z,99140
2019-03-15T05:54:12.000Z,99132
2019-03-15T05:56:12.000Z,99130
2019-03-15T05:58:12.000Z,99122
2019-03-15T05:59:12.000Z,99114
2019-03-15T06:00:12.000Z,99123
2019-03-15T06:02:12.000Z,99132
2019-03-15T06:03:42.000Z,99121
2019-03-15T06:05:12.000Z,99123
2019-03-15T06:06:12.000Z,99121
2019-03-15T06:08:12.000Z,99118
2019-03-15T06:10:12.000Z,99122
2019-03-15T06:11:12.000Z,99120
2019-03-15T06:13:12.000Z,99141
2019-03-15T06:15:12.000Z,99129
2019-03-15T06:17:12.000Z,99117
2019-03-15T06:18:57.000Z,99118
2019-03-15T06:20:12.000Z,99108
2019-03-15T06:21:12.000Z,99118
2019-03-15T06:22:57.000Z,99117
2019-03-15T06:24:12.000Z,99108
2019-03-15T06:26:12.000Z,99108
2019-03-15T06:27:12.000Z,99111
2019-03-15T06:28:12.000Z,99098
2019-03-15T06:30:12.000Z,99100
2019-03-15T06:32:12.000Z,99094
2019-03-15T06:33:12.000Z,99094
2019-03-15T06:34:12.000Z,99087
2019-03-15T06:36:12.000Z,99095
2019-03-15T06:37:12.000Z,99097
2019-03-15T06:39:12.000Z,99100
2019-03-15T06:41:12.000Z,99100
2019-03-15T06:43:12.000Z,99102
2019-03-15T06:44:57.000Z,99104
2019-03-15T06:47:12.000Z,99104
2019-03-15T06:48:42.000Z,99104
2019-03-15T06:50:12.000Z,99103
2019-03-15T06:52:12.000Z,99097
2019-03-15T06:53:12.000Z,99102
2019-03-15T06:54:57.000Z,99101
2019-03-15T06:56:12.000Z,99095
2019-03-15T06:57:12.000Z,99110
2019-03-15T06:59:12.000Z,99103
2019-03-15T07:00:41.000Z,99099
2019-03-15T07:02:12.000Z,99093
2019-03-15T07:04:12.000Z,99091
2019-03-15T07:05:12.000Z,99078
2019-03-15T07:06:42.000Z,99080
2019-03-15T07:08:12.000Z,99076
2019-03-15T07:09:12.000Z,99085
2019-03-15T07:10:12.000Z,99083
2019-03-15T07:11:57.000Z,99090
2019-03-15T07:13:12.000Z,99100
2019-03-15T07:14:12.000Z,99090
2019-03-15T07:15:44.000Z,99086
2019-03-15T07:18:12.000Z,99089
2019-03-15T07:20:12.000Z,99098
2019-03-15T07:21:12.000Z,99100
2019-03-15T07:23:12.000Z,99107
2019-03-15T07:24:42.000Z,99092
2019-03-15T07:26:12.000Z,99081
2019-03-15T07:27:58.000Z,99072
2019-03-15T07:29:57.000Z,99058
2019-03-15T07:31:57.000Z,99058
2019-03-15T07:33:12.000Z,99059
2019-03-15T07:35:12.000Z,99061
2019-03-15T07:37:12.000Z,99062
2019-03-15T07:38:57.000Z,99052
2019-03-15T07:40:12.000Z,99042
2019-03-15T07:41:42.000Z,99036
2019-03-15T07:42:57.000Z,99031
2019-03-15T07:45:12.000Z,99024
2019-03-15T07:46:12.000Z,99021
2019-03-15T07:48:12.000Z,99022
2019-03-15T07:50:12.000Z,99028
2019-03-15T07:52:12.000Z,99030
2019-03-15T07:53:12.000Z,99029
2019-03-15T07:54:57.000Z,99025
2019-03-15T07:56:12.000Z,99026
2019-03-15T07:58:12.000Z,99023
2019-03-15T08:00:12.000Z,99016
2019-03-15T08:02:12.000Z,99017
2019-03-15T08:04:12.000Z,99007
2019-03-15T08:06:12.000Z,99004
2019-03-15T08:07:12.000Z,99001
2019-03-15T08:08:42.000Z,98994
2019-03-15T08:10:12.000Z,98991
2019-03-15T08:11:12.000Z,98994
2019-03-15T08:12:12.000Z,98995
2019-03-15T08:14:12.000Z,98989
2019-03-15T08:15:12.000Z,98993
2019-03-15T08:17:12.000Z,98977
2019-03-15T08:19:12.000Z,98988
2019-03-15T08:21:12.000Z,98971
2019-03-15T08:23:12.000Z,98969
2019-03-15T08:24:42.000Z,98968
2019-03-15T08:26:12.000Z,98969
2019-03-15T08:27:12.000Z,98964
2019-03-15T08:29:12.000Z,98966
2019-03-15T08:30:12.000Z,98966
2019-03-15T08:32:12.000Z,98968
2019-03-15T08:34:12.000Z,98967
2019-03-15T08:35:12.000Z,98970
2019-03-15T08:37:12.000Z,98966
2019-03-15T08:38:47.000Z,98969
2019-03-15T08:40:12.000Z,98960
2019-03-15T08:41:12.000Z,98955
2019-03-15T08:42:12.000Z,98955
2019-03-15T08:43:12.000Z,98968
2019-03-15T08:45:12.000Z,98968
2019-03-15T08:46:57.000Z,98967
2019-03-15T08:48:12.000Z,98967
2019-03-15T08:50:12.000Z,98947
2019-03-15T08:51:57.000Z,98932
2019-03-15T08:54:12.000Z,98935
2019-03-15T08:55:41.000Z,98940
2019-03-15T08:56:57.000Z,98956
2019-03-15T08:58:12.000Z,98937
2019-03-15T08:59:42.000Z,98925
2019-03-15T09:01:12.000Z,98927
2019-03-15T09:02:12.000Z,98930
2019-03-15T09:03:12.000Z,98910
2019-03-15T09:04:57.000Z,98945
2019-03-15T09:06:12.000Z,98955
2019-03-15T09:07:56.000Z,98955
2019-03-15T09:09:12.000Z,98949
2019-03-15T09:10:12.000Z,98949
2019-03-15T09:12:11.000Z,98958
2019-03-15T09:14:12.000Z,98970
2019-03-15T09:15:56.000Z,98967
2019-03-15T09:17:12.000Z,98968
2019-03-15T09:18:12.000Z,98973
2019-03-15T09:20:12.000Z,98969
2019-03-15T09:21:12.000Z,98970
2019-03-15T09:22:56.000Z,98975
2019-03-15T09:23:57.000Z,98954
2019-03-15T09:25:12.000Z,98971
2019-03-15T09:27:12.000Z,98956
2019-03-15T09:29:11.000Z,98973
2019-03-15T09:30:12.000Z,98956
2019-03-15T09:31:42.000Z,98950
2019-03-15T09:33:11.000Z,98955
2019-03-15T09:34:12.000Z,98954
2019-03-15T09:35:57.000Z,98963
2019-03-15T09:38:11.000Z,98939
2019-03-15T09:39:12.000Z,98940
2019-03-15T09:41:12.000Z,98944
2019-03-15T09:42:12.000Z,98941
2019-03-15T09:43:42.000Z,98936
2019-03-15T09:45:11.000Z,98937
2019-03-15T09:46:12.000Z,98934
2019-03-15T09:48:12.000Z,98927
2019-03-15T09:50:11.000Z,98937
2019-03-15T09:52:11.000Z,98933
2019-03-15T09:54:12.000Z,98933
2019-03-15T09:56:12.000Z,98936
2019-03-15T09:57:56.000Z,98938
2019-03-15T09:59:12.000Z,98945
2019-03-15T10:00:56.000Z,98939
2019-03-15T10:02:11.000Z,98941
2019-03-15T10:03:12.000Z,98933
2019-03-15T10:04:57.000Z,98928
2019-03-15T10:06:11.000Z,98930
2019-03-15T10:07:42.000Z,98929
2019-03-15T10:09:11.000Z,98929
2019-03-15T10:11:12.000Z,98934
2019-03-15T10:12:57.000Z,98934
2019-03-15T10:14:56.000Z,98942
2019-03-15T10:16:12.000Z,98933
2019-03-15T10:18:12.000Z,98938
2019-03-15T10:20:12.000Z,98940
2019-03-15T10:22:12.000Z,98944
2019-03-15T10:23:41.000Z,98944
2019-03-15T10:25:12.000Z,98940
2019-03-15T10:27:12.000Z,98939
2019-03-15T10:28:12.000Z,98935
2019-03-15T10:29:12.000Z,98932
2019-03-15T10:31:12.000Z,98935
2019-03-15T10:32:12.000Z,98940
2019-03-15T10:33:42.000Z,98938
2019-03-15T10:36:12.000Z,98943
2019-03-15T10:37:12.000Z,98934
2019-03-15T10:39:12.000Z,98951
2019-03-15T10:40:57.000Z,98933
2019-03-15T10:43:12.000Z,98934
2019-03-15T10:45:12.000Z,98940
2019-03-15T10:47:12.000Z,98939
2019-03-15T10:49:12.000Z,98933
2019-03-15T10:50:12.000Z,98947
2019-03-15T10:51:12.000Z,98943
2019-03-15T10:52:56.000Z,98951
2019-03-15T10:54:12.000Z,98944
2019-03-15T10:55:12.000Z,98943
2019-03-15T10:57:12.000Z,98944
2019-03-15T10:59:12.000Z,98951
2019-03-15T11:00:12.000Z,98944
2019-03-15T11:02:12.000Z,98954
2019-03-15T11:04:12.000Z,98951
2019-03-15T11:06:12.000Z,98959
2019-03-15T11:07:12.000Z,98951
2019-03-15T11:08:12.000Z,98953
2019-03-15T11:10:12.000Z,98952
2019-03-15T11:12:12.000Z,98951
2019-03-15T11:14:12.000Z,98952
2019-03-15T11:15:12.000Z,98954
2019-03-15T11:17:12.000Z,98948
2019-03-15T11:18:12.000Z,98948
2019-03-15T11:20:12.000Z,98949
2019-03-15T11:22:12.000Z,98964
2019-03-15T11:23:57.000Z,98960
2019-03-15T11:26:12.000Z,98968
2019-03-15T11:28:12.000Z,98967
2019-03-15T11:29:12.000Z,98964
2019-03-15T11:30:12.000Z,98962
2019-03-15T11:31:57.000Z,98965
2019-03-15T11:33:12.000Z,98975
2019-03-15T11:35:12.000Z,98969
2019-03-15T11:36:57.000Z,98973
2019-03-15T11:39:12.000Z,98988
2019-03-15T11:40:12.000Z,98979
2019-03-15T11:42:12.000Z,98978
2019-03-15T11:44:12.000Z,98979
2019-03-15T11:46:12.000Z,98981
2019-03-15T11:47:42.000Z,98975
2019-03-15T11:49:12.000Z,98984
2019-03-15T11:50:12.000Z,98984
2019-03-15T11:51:12.000Z,98987
2019-03-15T11:53:12.000Z,98986
2019-03-15T11:54:12.000Z,98984
2019-03-15T11:55:12.000Z,98993
2019-03-15T11:57:12.000Z,98975
2019-03-15T11:59:12.000Z,98981
2019-03-15T12:00:12.000Z,98972
2019-03-15T12:01:57.000Z,98972
2019-03-15T12:03:42.000Z,98976
2019-03-15T12:05:12.000Z,98971
2019-03-15T12:07:12.000Z,98966
2019-03-15T12:09:12.000Z,98962
2019-03-15T12:11:12.000Z,98964
2019-03-15T12:13:12.000Z,98963
2019-03-15T12:14:12.000Z,98967
2019-03-15T12:16:12.000Z,98962
2019-03-15T12:18:12.000Z,98958
2019-03-15T12:19:12.000Z,98948
2019-03-15T12:21:11.000Z,98958
2019-03-15T12:22:56.000Z,98973
2019-03-15T12:24:11.000Z,98967
2019-03-15T12:25:41.000Z,98970
2019-03-15T12:27:11.000Z,98967
2019-03-15T12:29:11.000Z,98964
2019-03-15T12:30:41.000Z,98972
2019-03-15T12:32:11.000Z,98975
2019-03-15T12:33:11.000Z,98981
2019-03-15T12:34:11.000Z,98975
2019-03-15T12:36:11.000Z,98972
2019-03-15T12:37:11.000Z,98967
2019-03-15T12:38:11.000Z,98955
2019-03-15T12:40:11.000Z,98962
2019-03-15T12:41:11.000Z,98962
2019-03-15T12:43:11.000Z,98955
2019-03-15T12:45:11.000Z,98962
2019-03-15T12:48:16.000Z,98955
2019-03-15T12:50:16.000Z,98947
2019-03-15T12:52:16.000Z,98962
2019-03-15T12:54:16.000Z,98957
2019-03-15T12:56:16.000Z,98952
2019-03-15T12:57:48.000Z,98958
2019-03-15T12:59:16.000Z,98958
2019-03-15T13:00:16.000Z,98952
2019-03-15T13:02:16.000Z,98957
2019-03-15T13:04:16.000Z,98947
2019-03-15T13:05:16.000Z,98952
2019-03-15T13:06:45.000Z,98950
2019-03-15T13:08:16.000Z,98946
2019-03-15T13:10:16.000Z,98940
2019-03-15T13:11:16.000Z,98939
2019-03-15T13:13:16.000Z,98943
2019-03-15T13:14:16.000Z,98933
2019-03-15T13:16:16.000Z,98928
2019-03-15T13:18:16.000Z,98938
2019-03-15T13:19:46.000Z,98935
2019-03-15T13:21:16.000Z,98941
2019-03-15T13:23:17.000Z,98922
2019-03-15T13:24:17.000Z,98934
2019-03-15T13:25:17.000Z,98929
2019-03-15T13:27:02.000Z,98924
2019-03-15T13:29:17.000Z,98931
2019-03-15T13:31:17.000Z,98940
2019-03-15T13:32:17.000Z,98929
2019-03-15T13:34:17.000Z,98934
2019-03-15T13:35:17.000Z,98934
2019-03-15T13:37:17.000Z,98942
2019-03-15T13:38:17.000Z,98937
2019-03-15T13:40:17.000Z,98931
2019-03-15T13:42:17.000Z,98929
2019-03-15T13:44:02.000Z,98929
2019-03-15T13:45:17.000Z,98918
2019-03-15T13:47:17.000Z,98929
2019-03-15T13:49:02.000Z,98925
2019-03-15T13:51:17.000Z,98933
2019-03-15T13:53:17.000Z,98918
2019-03-15T13:55:17.000Z,98924
2019-03-15T13:56:17.000Z,98929
2019-03-15T13:58:17.000Z,98928
2019-03-15T14:00:17.000Z,98931
2019-03-15T14:02:17.000Z,98936
2019-03-15T14:04:17.000Z,98933
2019-03-15T14:06:17.000Z,98928
2019-03-15T14:07:17.000Z,98928
2019-03-15T14:09:17.000Z,98916
2019-03-15T14:10:49.000Z,98928
2019-03-15T14:12:17.000Z,98922
2019-03-15T14:14:17.000Z,98919
2019-03-15T14:16:02.000Z,98906
2019-03-15T14:17:17.000Z,98923
2019-03-15T14:19:17.000Z,98918
2019-03-15T14:21:17.000Z,98906
2019-03-15T14:23:17.000Z,98914
2019-03-15T14:25:02.000Z,98915
2019-03-15T14:26:17.000Z,98914
2019-03-15T14:28:01.000Z,98919
2019-03-15T14:29:16.000Z,98914
2019-03-15T14:31:16.000Z,98931
2019-03-15T14:33:16.000Z,98930
2019-03-15T14:34:16.000Z,98937
2019-03-15T14:36:01.000Z,98936
2019-03-15T14:38:01.000Z,98921
2019-03-15T14:39:47.000Z,98935
2019-03-15T14:42:16.000Z,98938
2019-03-15T14:43:47.000Z,98940
2019-03-15T14:45:47.000Z,98929
2019-03-15T14:48:16.000Z,98961
2019-03-15T14:49:16.000Z,98949
2019-03-15T14:50:16.000Z,98953
2019-03-15T14:52:01.000Z,98955
2019-03-15T14:53:16.000Z,98948
2019-03-15T14:55:16.000Z,98957
2019-03-15T14:57:16.000Z,98950
2019-03-15T14:59:16.000Z,98962
2019-03-15T15:00:16.000Z,98949
2019-03-15T15:02:16.000Z,98955
2019-03-15T15:03:16.000Z,98959
2019-03-15T15:05:16.000Z,98950
2019-03-15T15:07:16.000Z,98958
2019-03-15T15:08:16.000Z,98951
2019-03-15T15:09:16.000Z,98953
2019-03-15T15:11:16.000Z,98957
2019-03-15T15:12:16.000Z,98951
2019-03-15T15:14:16.000Z,98972
2019-03-15T15:15:16.000Z,98967
2019-03-15T15:17:01.000Z,98954
2019-03-15T15:19:16.000Z,98937
2019-03-15T15:20:16.000Z,98936
2019-03-15T15:21:16.000Z,98943
2019-03-15T15:23:16.000Z,98954
2019-03-15T15:24:16.000Z,98952
2019-03-15T15:26:16.000Z,98953
2019-03-15T15:27:16.000Z,98959
2019-03-15T15:29:01.000Z,98965
2019-03-15T15:30:16.000Z,98952
2019-03-15T15:32:17.000Z,98949
2019-03-15T15:33:17.000Z,98946
2019-03-15T15:37:18.000Z,98947
2019-03-15T15:39:04.000Z,98933
2019-03-15T15:40:04.000Z,98934
2019-03-15T15:41:49.000Z,98945
2019-03-15T15:43:04.000Z,98944
2019-03-15T15:44:04.000Z,98939
2019-03-15T15:46:04.000Z,98933
2019-03-15T15:48:04.000Z,98930
2019-03-15T15:50:04.000Z,98919
2019-03-15T15:51:04.000Z,98933
2019-03-15T15:53:04.000Z,98928
2019-03-15T15:54:04.000Z,98926
2019-03-15T15:55:04.000Z,98927
2019-03-15T15:56:49.000Z,98916
2019-03-15T15:59:04.000Z,98917
2019-03-15T16:00:33.000Z,98930
2019-03-15T16:02:04.000Z,98924
2019-03-15T16:03:04.000Z,98923
2019-03-15T16:05:04.000Z,98931
2019-03-15T16:07:04.000Z,98937
2019-03-15T16:09:04.000Z,98932
2019-03-15T16:11:04.000Z,98933
2019-03-15T16:12:04.000Z,98947
2019-03-15T16:14:04.000Z,98929
2019-03-15T16:15:04.000Z,98933
2019-03-15T16:17:04.000Z,98942
2019-03-15T16:18:04.000Z,98942
2019-03-15T16:19:49.000Z,98943
2019-03-15T16:21:04.000Z,98936
2019-03-15T16:22:49.000Z,98949
2019-03-15T16:24:04.000Z,98943
2019-03-15T16:25:04.000Z,98941
2019-03-15T16:27:04.000Z,98956
2019-03-15T16:28:04.000Z,98969
2019-03-15T16:30:04.000Z,98961
2019-03-15T16:31:04.000Z,98969
2019-03-15T16:33:04.000Z,98980
2019-03-15T16:34:49.000Z,98984
2019-03-15T16:36:04.000Z,98986
2019-03-15T16:38:04.000Z,98943
2019-03-15T16:40:04.000Z,98967
2019-03-15T16:42:04.000Z,98976
2019-03-15T16:43:04.000Z,98963
2019-03-15T16:44:04.000Z,98974
2019-03-15T16:45:04.000Z,98975
2019-03-15T16:47:04.000Z,98993
2019-03-15T16:48:34.000Z,98991
2019-03-15T16:50:04.000Z,98982
2019-03-15T16:51:49.000Z,98985
2019-03-15T16:53:04.000Z,98994
2019-03-15T16:54:04.000Z,98987
2019-03-15T16:55:49.000Z,98985
2019-03-15T16:57:04.000Z,99001
2019-03-15T16:58:34.000Z,99011
2019-03-15T17:00:04.000Z,99006
2019-03-15T17:01:04.000Z,99005
2019-03-15T17:02:34.000Z,99016
2019-03-15T17:04:04.000Z,99020
2019-03-15T17:06:04.000Z,99022
2019-03-15T17:08:04.000Z,99024
2019-03-15T17:09:04.000Z,99027
2019-03-15T17:10:49.000Z,99034
2019-03-15T17:12:04.000Z,99029
2019-03-15T17:14:04.000Z,99037
2019-03-15T17:15:04.000Z,99043
2019-03-15T17:16:49.000Z,99035
2019-03-15T17:19:04.000Z,99037
2019-03-15T17:21:04.000Z,99042
2019-03-15T17:23:04.000Z,99047
2019-03-15T17:25:04.000Z,99049
2019-03-15T17:26:04.000Z,99057
2019-03-15T17:28:04.000Z,99058
2019-03-15T17:29:49.000Z,99080
2019-03-15T17:31:04.000Z,99078
2019-03-15T17:32:49.000Z,99092
2019-03-15T17:34:04.000Z,99086
2019-03-15T17:36:04.000Z,99094
2019-03-15T17:38:04.000Z,99090
2019-03-15T17:39:34.000Z,99091
2019-03-15T17:41:04.000Z,99094
2019-03-15T17:42:04.000Z,99097
2019-03-15T17:43:04.000Z,99090
2019-03-15T17:45:04.000Z,99091
2019-03-15T17:47:04.000Z,99095
2019-03-15T17:49:04.000Z,99098
2019-03-15T17:51:04.000Z,99115
2019-03-15T17:52:04.000Z,99117
2019-03-15T17:54:04.000Z,99117
2019-03-15T17:56:04.000Z,99130
2019-03-15T17:57:04.000Z,99128
2019-03-15T17:59:04.000Z,99135
2019-03-15T18:00:49.000Z,99133
2019-03-15T18:02:04.000Z,99145
2019-03-15T18:03:04.000Z,99146
2019-03-15T18:05:04.000Z,99146
2019-03-15T18:06:04.000Z,99150
2019-03-15T18:07:49.000Z,99159
2019-03-15T18:09:04.000Z,99165
2019-03-15T18:10:49.000Z,99167
2019-03-15T18:13:04.000Z,99172
2019-03-15T18:15:04.000Z,99179
2019-03-15T18:17:04.000Z,99181
2019-03-15T18:19:04.000Z,99190
2019-03-15T18:21:04.000Z,99198
2019-03-15T18:22:04.000Z,99208
2019-03-15T18:24:04.000Z,99218
2019-03-15T18:26:04.000Z,99224
2019-03-15T18:28:04.000Z,99229
2019-03-15T18:30:04.000Z,99233
2019-03-15T18:31:04.000Z,99232
2019-03-15T18:32:49.000Z,99232
2019-03-15T18:34:04.000Z,99230
2019-03-15T18:36:04.000Z,99221
2019-03-15T18:37:49.000Z,99223
2019-03-15T18:39:04.000Z,99224
2019-03-15T18:40:49.000Z,99220
2019-03-15T18:41:49.000Z,99221
2019-03-15T18:44:04.000Z,99214
2019-03-15T18:45:33.000Z,99216
2019-03-15T18:47:04.000Z,99221
2019-03-15T18:48:04.000Z,99222
2019-03-15T18:50:04.000Z,99225
2019-03-15T18:52:04.000Z,99225
2019-03-15T18:54:04.000Z,99232
2019-03-15T18:56:04.000Z,99234
2019-03-15T18:57:04.000Z,99233
2019-03-15T18:58:49.000Z,99240
2019-03-15T19:00:48.000Z,99248
2019-03-15T19:02:04.000Z,99247
2019-03-15T19:03:04.000Z,99250
2019-03-15T19:05:04.000Z,99256
2019-03-15T19:06:48.000Z,99260
2019-03-15T19:08:04.000Z,99268
2019-03-15T19:09:04.000Z,99269
2019-03-15T19:10:48.000Z,99274
2019-03-15T19:12:04.000Z,99270
2019-03-15T19:13:04.000Z,99268
2019-03-15T19:15:04.000Z,99271
2019-03-15T19:17:04.000Z,99269
2019-03-15T19:19:04.000Z,99270
2019-03-15T19:20:49.000Z,99275
2019-03-15T19:22:04.000Z,99279
2019-03-15T19:23:04.000Z,99277
2019-03-15T19:24:04.000Z,99283
2019-03-15T19:26:04.000Z,99289
2019-03-15T19:28:04.000Z,99292
2019-03-15T19:29:48.000Z,99295
2019-03-15T19:31:04.000Z,99302
2019-03-15T19:33:04.000Z,99299
2019-03-15T19:35:04.000Z,99306
2019-03-15T19:37:04.000Z,99303
2019-03-15T19:38:04.000Z,99308
2019-03-15T19:39:48.000Z,99314
2019-03-15T19:41:04.000Z,99322
2019-03-15T19:43:04.000Z,99321
2019-03-15T19:44:04.000Z,99326
2019-03-15T19:46:04.000Z,99338
2019-03-15T19:48:04.000Z,99345
2019-03-15T19:49:49.000Z,99355
2019-03-15T19:51:04.000Z,99352
2019-03-15T19:52:04.000Z,99362
2019-03-15T19:53:04.000Z,99363
2019-03-15T19:54:49.000Z,99368
2019-03-15T19:56:04.000Z,99364
2019-03-15T19:57:04.000Z,99368
2019-03-15T19:58:04.000Z,99361
2019-03-15T19:59:49.000Z,99356
2019-03-15T20:01:04.000Z,99363
2019-03-15T20:03:04.000Z,99373
2019-03-15T20:04:49.000Z,99381
2019-03-15T20:06:04.000Z,99380
2019-03-15T20:07:34.000Z,99391
2019-03-15T20:08:49.000Z,99396
2019-03-15T20:10:04.000Z,99396
2019-03-15T20:12:04.000Z,99409
2019-03-15T20:14:04.000Z,99410
2019-03-15T20:15:49.000Z,99408
2019-03-15T20:17:49.000Z,99402
2019-03-15T20:19:04.000Z,99412
2019-03-15T20:20:04.000Z,99407
2019-03-15T20:22:04.000Z,99407
2019-03-15T20:23:04.000Z,99402
2019-03-15T20:24:04.000Z,99407
2019-03-15T20:26:04.000Z,99408
2019-03-15T20:27:04.000Z,99413
2019-03-15T20:28:04.000Z,99416
2019-03-15T20:29:49.000Z,99418
2019-03-15T20:32:04.000Z,99417
2019-03-15T20:34:04.000Z,99416
2019-03-15T20:35:49.000Z,99418
2019-03-15T20:38:04.000Z,99417
2019-03-15T20:39:49.000Z,99428
2019-03-15T20:41:04.000Z,99432
2019-03-15T20:42:04.000Z,99423
2019-03-15T20:44:04.000Z,99430
2019-03-15T20:46:04.000Z,99435
2019-03-15T20:47:51.000Z,99434
2019-03-15T20:49:04.000Z,99441
2019-03-15T20:50:46.000Z,99443
2019-03-15T20:52:03.000Z,99436
2019-03-15T20:54:03.000Z,99450
2019-03-15T20:55:48.000Z,99459
2019-03-15T20:57:03.000Z,99449